LECO Airport Information

Runway Information
Runway 03 Length 6358 ft width 148 ft
Elevation 327 ft Threshold 0 ft Heading 31
Runway 21 Length 6358 ft Width 148 ft
Elevation 286 ft Threshold 0 ft Heading 211
Airport Frequencies
Type APP Name SANTIAGO A Frequency 120.2 MHZ
Type GND Name GND Frequency 121.7 MHZ
Type TWR Name A Coruña T Frequency 118.3 MHZ
Airport Navaids
Type NDB Name La Coruna Frequency 401 KHZ
Type VOR-DME Name La Coruna Frequency 115100 KHZ
Airport Weather Information & NOTAM
ADDS - METARS form results

(0046 UTC 13 July 2020)
Data provider http://aviationweather.gov/metar/data/
 
METAR text: LECO 130030Z AUTO 01005KT 330V040 CAVOK 18/14 Q1022
Conditions at: LECO (LA CORUNA/ALVEDR, ES) observed 0030 UTC 13 July 2020
Temperature: 18.0°C (64°F)
Dewpoint: 14.0°C (57°F) [RH = 77%]
Pressure (altimeter): 30.18 inches Hg (1022.0 mb)
Winds: from the N (10 degrees) at 6 MPH (5 knots; 2.6 m/s)
Visibility: 6 or more miles (10+ km)
Ceiling: ceiling and visibility are OK
Clouds: unknown
Weather: no significant weather observed at this time

METAR text: LECO 130000Z AUTO 36005KT 320V030 CAVOK 18/14 Q1022
Conditions at: LECO (LA CORUNA/ALVEDR, ES) observed 0000 UTC 13 July 2020
Temperature: 18.0°C (64°F)
Dewpoint: 14.0°C (57°F) [RH = 77%]
Pressure (altimeter): 30.18 inches Hg (1022.0 mb)
Winds: from the N (360 degrees) at 6 MPH (5 knots; 2.6 m/s)
Visibility: 6 or more miles (10+ km)
Ceiling: ceiling and visibility are OK
Clouds: unknown
Weather: no significant weather observed at this time

Forecast for: LECO (LA CORUNA/ALVEDR, ES)
Text: TAF LECO 122000Z 1221/1321 04008KT 9999 FEW020 TX26/1315Z TN15/1305Z
Forecast period: 2100 UTC 12 July 2020 to 2100 UTC 13 July 2020
Forecast type: FROM: standard forecast or significant change
Winds: from the NE (40 degrees) at 9 MPH (8 knots; 4.1 m/s)
Visibility: 6 or more miles 10+ km)
Ceiling: at least 12,000 feet AGL
Clouds: few clouds at 2000 feet AGL
Weather: no significant weather forecast for this period
Text: PROB40
Forecast period: 1100 to 2000 UTC 13 July 2020
Forecast type: TEMPORARY: The following changes expected for less than half the time period
Winds: from the NNE (20 degrees) at 17 MPH (15 knots; 7.7 m/s)
gusting to 29 MPH (25 knots; 12.9 m/s)
Visibility: missing
Ceiling: unknown
Clouds: missing
Weather: no significant weather forecast for this period